Ganserndorf, Austria
Current Conditions -  °F | °C
As of 2:20 AM on Wednesday 26 Nov 2014 (Local Time) from LOWW Reporting Station
Broken Clouds Broken Clouds  
Wind Chill: 31°   Ceiling: 1400
Heat Index: 37°   Visibility: 5mi
Dew Point: 34°   Wind: 9mph
Humidity: 87%   Direction: 140°SE
Pressure: 30.3"   Gusts: NA
Location:  48.34°N, 16.72°E
Report Text: LOWW 260020Z 14008KT 8000 FEW012 BKN014 03/01 Q1026 NOSIG
Loading
Personal Weather Stations






























Interactive Weather Map New forecast layout! Learn more

10-Day Weather Forecast

Advertisements
Track Severe Weather on mobile